createdAt,value
2023-02-22T00:02:27.164Z,37.73
2023-02-22T00:04:55.919Z,38.87
2023-02-22T00:07:27.699Z,38.90
2023-02-22T00:10:00.992Z,40.60
2023-02-22T00:12:31.211Z,40.83
2023-02-22T00:14:59.871Z,40.63
2023-02-22T00:17:30.536Z,40.03
2023-02-22T00:19:58.864Z,40.63
2023-02-22T00:22:27.263Z,41.17
2023-02-22T00:24:55.542Z,41.33
2023-02-22T00:27:23.900Z,43.63
2023-02-22T00:29:56.699Z,40.53
2023-02-22T00:32:25.366Z,44.60
2023-02-22T00:34:55.971Z,43.17
2023-02-22T00:37:26.587Z,43.13
2023-02-22T00:39:55.065Z,46.40
2023-02-22T00:42:23.481Z,44.60
2023-02-22T00:44:55.724Z,47.27
2023-02-22T00:47:24.119Z,47.17
2023-02-22T00:49:52.412Z,44.87
2023-02-22T00:52:20.918Z,48.83
2023-02-22T00:54:49.633Z,45.70
2023-02-22T00:57:19.220Z,45.37
2023-02-22T00:59:47.854Z,46.53
2023-02-22T01:02:18.317Z,44.87
2023-02-22T01:04:49.148Z,46.83
2023-02-22T01:07:17.747Z,49.27
2023-02-22T01:09:46.172Z,47.53
2023-02-22T01:12:16.176Z,44.87
2023-02-22T01:14:44.572Z,49.53
2023-02-22T01:17:12.971Z,47.43
2023-02-22T01:19:43.814Z,50.37
2023-02-22T01:22:12.137Z,47.47
2023-02-22T01:24:40.922Z,50.27
2023-02-22T01:27:11.008Z,49.77
2023-02-22T01:29:40.682Z,50.03
2023-02-22T01:32:09.395Z,46.13
2023-02-22T01:34:37.714Z,50.67
2023-02-22T01:37:07.626Z,49.60
2023-02-22T01:39:35.912Z,51.80
2023-02-22T01:42:04.365Z,51.10
2023-02-22T01:44:35.778Z,51.10
2023-02-22T01:47:06.072Z,50.17
2023-02-22T01:49:39.374Z,54.80
2023-02-22T01:52:11.745Z,54.60
2023-02-22T01:54:46.842Z,52.60
2023-02-22T01:57:19.538Z,55.77
2023-02-22T01:59:51.528Z,53.97
2023-02-22T02:02:22.414Z,53.63
2023-02-22T02:04:55.650Z,56.27
2023-02-22T02:07:26.083Z,57.17
2023-02-22T02:09:59.886Z,57.67
2023-02-22T02:12:31.722Z,60.43
2023-02-22T02:15:18.500Z,59.97
2023-02-22T02:17:48.068Z,61.37
2023-02-22T02:20:25.064Z,57.87
2023-02-22T02:23:01.751Z,53.50
2023-02-22T02:26:04.003Z,54.13
2023-02-22T02:29:23.371Z,53.57
2023-02-22T02:32:22.451Z,54.80
2023-02-22T02:34:56.066Z,53.33
2023-02-22T02:37:34.383Z,59.13
2023-02-22T02:40:12.548Z,59.30
2023-02-22T02:42:45.892Z,61.00
2023-02-22T02:45:21.123Z,59.47
2023-02-22T02:47:58.884Z,59.07
2023-02-22T02:50:30.907Z,57.80
2023-02-22T02:53:03.765Z,61.60
2023-02-22T02:55:36.742Z,60.53
2023-02-22T02:58:05.892Z,67.67
2023-02-22T03:00:39.473Z,61.93
2023-02-22T03:03:24.958Z,59.77
2023-02-22T03:06:06.772Z,65.70
2023-02-22T03:08:43.300Z,66.70
2023-02-22T03:11:16.651Z,60.07
2023-02-22T03:13:56.003Z,57.90
2023-02-22T03:16:35.121Z,60.07
2023-02-22T03:19:10.678Z,56.13
2023-02-22T03:21:48.413Z,54.47
2023-02-22T03:24:23.260Z,59.87
2023-02-22T03:27:00.284Z,54.67
2023-02-22T03:29:35.654Z,49.43
2023-02-22T03:32:11.383Z,47.13
2023-02-22T03:34:45.988Z,49.67
2023-02-22T03:37:22.127Z,47.43
2023-02-22T03:39:55.615Z,50.00
2023-02-22T03:42:28.247Z,47.97
2023-02-22T03:45:01.460Z,51.83
2023-02-22T03:47:36.787Z,45.80
2023-02-22T03:50:12.770Z,46.73
2023-02-22T03:52:41.843Z,48.10
2023-02-22T03:55:17.867Z,47.73
2023-02-22T03:57:49.513Z,47.53
2023-02-22T04:00:22.443Z,45.57
2023-02-22T04:02:52.446Z,48.13
2023-02-22T04:05:25.066Z,46.13
2023-02-22T04:07:53.940Z,44.00
2023-02-22T04:10:22.755Z,45.93
2023-02-22T04:12:51.813Z,45.17
2023-02-22T04:15:22.328Z,43.93
2023-02-22T04:17:53.136Z,45.33
2023-02-22T04:20:25.826Z,43.20
2023-02-22T04:23:00.711Z,42.93
2023-02-22T04:25:33.043Z,45.80
2023-02-22T04:28:12.794Z,44.57
2023-02-22T04:30:53.906Z,47.47
2023-02-22T04:33:23.291Z,44.43
2023-02-22T04:35:52.961Z,44.03
2023-02-22T04:38:21.696Z,40.07
2023-02-22T04:40:50.267Z,37.67
2023-02-22T04:43:18.900Z,37.67
2023-02-22T04:45:48.821Z,38.07
2023-02-22T04:48:17.343Z,40.20
2023-02-22T04:50:45.698Z,39.80
2023-02-22T04:53:16.962Z,38.90
2023-02-22T04:55:45.339Z,38.53
2023-02-22T04:58:13.838Z,37.37
2023-02-22T05:00:42.533Z,37.17
2023-02-22T05:03:11.326Z,38.93
2023-02-22T05:05:39.989Z,37.40
2023-02-22T05:08:11.484Z,38.67
2023-02-22T05:10:41.268Z,38.57
2023-02-22T05:13:09.735Z,40.37
2023-02-22T05:15:38.270Z,38.90
2023-02-22T05:18:06.855Z,38.30
2023-02-22T05:20:36.647Z,37.00
2023-02-22T05:23:06.014Z,37.70
2023-02-22T05:25:35.615Z,37.03
2023-02-22T05:28:09.609Z,38.63
2023-02-22T05:30:39.777Z,37.40
2023-02-22T05:33:08.912Z,39.23
2023-02-22T05:35:38.271Z,39.40
2023-02-22T05:38:09.649Z,37.90
2023-02-22T05:40:38.004Z,40.40
2023-02-22T05:43:07.824Z,41.40
2023-02-22T05:45:36.791Z,38.57
2023-02-22T05:48:05.799Z,39.27
2023-02-22T05:50:34.222Z,39.37
2023-02-22T05:53:03.259Z,39.17
2023-02-22T05:55:31.954Z,36.60
2023-02-22T05:58:02.289Z,37.57
2023-02-22T06:00:34.684Z,39.47
2023-02-22T06:03:04.946Z,37.83
2023-02-22T06:05:33.616Z,39.50
2023-02-22T06:08:03.358Z,38.60
2023-02-22T06:10:31.969Z,39.67
2023-02-22T06:13:02.148Z,36.57
2023-02-22T06:15:30.818Z,37.80
2023-02-22T06:18:04.110Z,37.80
2023-02-22T06:20:33.481Z,36.07
2023-02-22T06:23:01.980Z,34.60
2023-02-22T06:25:32.535Z,34.00
2023-02-22T06:28:01.922Z,32.47
2023-02-22T06:30:30.645Z,32.33
2023-02-22T06:32:59.373Z,33.57
2023-02-22T06:35:29.230Z,33.40
2023-02-22T06:37:57.689Z,33.57
2023-02-22T06:40:29.576Z,34.60
2023-02-22T06:42:59.967Z,33.17
2023-02-22T06:45:30.998Z,33.27
2023-02-22T06:47:59.446Z,34.37
2023-02-22T06:50:31.332Z,33.07
2023-02-22T06:53:00.093Z,34.97
2023-02-22T06:55:30.345Z,31.57
2023-02-22T06:57:58.956Z,33.20
2023-02-22T07:00:28.163Z,33.40
2023-02-22T07:02:57.278Z,35.40
2023-02-22T07:05:27.352Z,32.67
2023-02-22T07:08:04.629Z,33.47
2023-02-22T07:10:34.195Z,32.20
2023-02-22T07:13:03.525Z,31.63
2023-02-22T07:15:35.454Z,32.33
2023-02-22T07:18:04.258Z,31.13
2023-02-22T07:20:33.941Z,32.07
2023-02-22T07:23:03.817Z,31.57
2023-02-22T07:25:32.326Z,31.13
2023-02-22T07:28:00.785Z,30.83
2023-02-22T07:30:31.714Z,29.73
2023-02-22T07:33:02.483Z,30.07
2023-02-22T07:35:32.281Z,30.43
2023-02-22T07:38:01.032Z,28.77
2023-02-22T07:40:31.122Z,28.97
2023-02-22T07:43:01.733Z,28.47
2023-02-22T07:45:31.777Z,29.33
2023-02-22T07:48:01.260Z,30.50
2023-02-22T07:50:31.430Z,29.23
2023-02-22T07:53:01.578Z,28.07
2023-02-22T07:55:33.091Z,30.63
2023-02-22T07:58:03.326Z,29.33
2023-02-22T08:00:34.373Z,29.47
2023-02-22T08:03:03.999Z,31.53
2023-02-22T08:05:33.941Z,28.83
2023-02-22T08:08:02.976Z,29.83
2023-02-22T08:10:33.070Z,31.37
2023-02-22T08:13:02.002Z,31.57
2023-02-22T08:15:32.271Z,32.50
2023-02-22T08:18:02.177Z,31.30
2023-02-22T08:20:31.757Z,31.90
2023-02-22T08:23:00.406Z,33.50
2023-02-22T08:25:30.667Z,34.03
2023-02-22T08:28:01.808Z,32.23
2023-02-22T08:30:31.702Z,32.40
2023-02-22T08:33:02.619Z,33.23
2023-02-22T08:35:32.505Z,34.03
2023-02-22T08:38:02.742Z,33.90
2023-02-22T08:40:33.400Z,35.10
2023-02-22T08:43:03.606Z,34.50
2023-02-22T08:45:32.298Z,34.73
2023-02-22T08:48:00.951Z,34.50
2023-02-22T08:50:33.052Z,34.83
2023-02-22T08:53:04.947Z,34.80
2023-02-22T08:55:36.412Z,34.93
2023-02-22T08:58:10.112Z,35.67
2023-02-22T09:00:40.792Z,34.80
2023-02-22T09:03:13.381Z,35.53
2023-02-22T09:05:42.590Z,35.80
2023-02-22T09:08:11.552Z,33.70
2023-02-22T09:10:40.817Z,35.37
2023-02-22T09:13:10.732Z,35.53
2023-02-22T09:15:40.023Z,34.80
2023-02-22T09:18:10.824Z,36.07
2023-02-22T09:20:39.558Z,34.07
2023-02-22T09:23:09.892Z,35.13
2023-02-22T09:25:38.902Z,34.00
2023-02-22T09:28:07.702Z,33.20
2023-02-22T09:30:38.328Z,32.27
2023-02-22T09:33:10.160Z,32.33
2023-02-22T09:35:42.497Z,33.97
2023-02-22T09:38:12.448Z,31.73
2023-02-22T09:40:45.954Z,31.80
2023-02-22T09:43:35.839Z,31.97
2023-02-22T09:46:20.538Z,29.63
2023-02-22T09:48:59.340Z,29.30
2023-02-22T09:51:32.055Z,27.67
2023-02-22T09:54:03.957Z,27.10
2023-02-22T09:56:35.128Z,28.80
2023-02-22T09:59:08.005Z,26.07
2023-02-22T10:01:43.548Z,24.93
2023-02-22T10:04:20.060Z,24.53
2023-02-22T10:07:06.261Z,25.17
2023-02-22T10:09:41.326Z,24.27
2023-02-22T10:12:15.839Z,24.70
2023-02-22T10:14:55.605Z,23.83
2023-02-22T10:17:35.262Z,21.10
2023-02-22T10:20:19.902Z,22.43
2023-02-22T10:23:00.783Z,22.70
2023-02-22T10:25:35.081Z,22.03
2023-02-22T10:28:07.482Z,20.60
2023-02-22T10:30:42.055Z,20.87
2023-02-22T10:33:16.880Z,19.73
2023-02-22T10:35:47.269Z,19.57
2023-02-22T10:38:20.573Z,19.27
2023-02-22T10:40:54.835Z,18.87
2023-02-22T10:43:25.812Z,18.03
2023-02-22T10:45:57.584Z,17.57
2023-02-22T10:48:30.318Z,17.83
2023-02-22T10:51:03.157Z,17.37
2023-02-22T10:53:33.150Z,17.13
2023-02-22T10:56:12.898Z,17.53
2023-02-22T10:58:48.066Z,15.73
2023-02-22T11:01:21.833Z,17.60
2023-02-22T11:04:00.985Z,18.10
2023-02-22T11:06:30.117Z,16.50
2023-02-22T11:09:10.431Z,16.60
2023-02-22T11:11:40.479Z,16.47
2023-02-22T11:14:11.641Z,16.73
2023-02-22T11:16:43.812Z,16.03
2023-02-22T11:19:21.057Z,15.00
2023-02-22T11:21:53.181Z,15.07
2023-02-22T11:24:24.862Z,14.07
2023-02-22T11:26:56.483Z,13.27
2023-02-22T11:29:28.881Z,12.90
2023-02-22T11:31:57.474Z,12.67
2023-02-22T11:34:31.218Z,13.33
2023-02-22T11:37:18.380Z,13.13
2023-02-22T11:39:47.525Z,11.33
2023-02-22T11:42:23.622Z,11.37
2023-02-22T11:45:09.939Z,11.93
2023-02-22T11:47:49.205Z,10.80
2023-02-22T11:50:25.460Z,11.77
2023-02-22T11:53:05.831Z,11.17
2023-02-22T11:55:43.048Z,11.10
2023-02-22T11:58:28.083Z,11.27
2023-02-22T12:01:02.374Z,10.93
2023-02-22T12:03:50.661Z,10.80
2023-02-22T12:06:31.153Z,10.00
2023-02-22T12:09:14.190Z,9.57
2023-02-22T12:11:57.330Z,9.70
2023-02-22T12:14:32.165Z,8.80
2023-02-22T12:17:20.558Z,8.57
2023-02-22T12:19:51.264Z,10.63
2023-02-22T12:22:26.667Z,9.67
2023-02-22T12:25:10.353Z,8.70
2023-02-22T12:27:45.377Z,9.23
2023-02-22T12:30:20.837Z,10.03
2023-02-22T12:32:52.777Z,9.40
2023-02-22T12:35:24.781Z,9.73
2023-02-22T12:38:04.253Z,9.63
2023-02-22T12:40:39.594Z,9.97
2023-02-22T12:43:17.405Z,10.20
2023-02-22T12:45:51.735Z,9.70
2023-02-22T12:48:43.550Z,10.40
2023-02-22T12:51:29.505Z,10.60
2023-02-22T12:54:06.742Z,10.87
2023-02-22T12:56:41.109Z,10.03
2023-02-22T12:59:19.380Z,10.87
2023-02-22T13:01:53.810Z,11.20
2023-02-22T13:04:22.455Z,10.77
2023-02-22T13:07:06.520Z,10.73
2023-02-22T13:10:09.211Z,11.43
2023-02-22T13:12:44.542Z,10.90
2023-02-22T13:15:21.588Z,11.57
2023-02-22T13:18:01.798Z,11.13
2023-02-22T13:20:35.499Z,11.70
2023-02-22T13:23:12.402Z,10.53
2023-02-22T13:25:52.448Z,11.90
2023-02-22T13:28:30.108Z,10.53
2023-02-22T13:31:12.107Z,12.40
2023-02-22T13:34:01.421Z,11.57
2023-02-22T13:36:58.759Z,11.43
2023-02-22T13:39:55.963Z,11.47
2023-02-22T13:42:47.750Z,12.37
2023-02-22T13:45:45.550Z,12.17
2023-02-22T13:48:53.148Z,11.80
2023-02-22T13:51:40.995Z,12.60
2023-02-22T13:54:17.396Z,12.30
2023-02-22T13:56:47.272Z,11.93
2023-02-22T13:59:27.610Z,12.07
2023-02-22T14:01:56.930Z,12.40
2023-02-22T14:04:46.346Z,12.23
2023-02-22T14:07:57.573Z,12.43
2023-02-22T14:10:49.369Z,12.10
2023-02-22T14:13:19.256Z,12.10
2023-02-22T14:16:20.301Z,13.13
2023-02-22T14:18:51.830Z,12.47
2023-02-22T14:21:21.827Z,13.00
2023-02-22T14:23:52.144Z,13.10
2023-02-22T14:26:26.882Z,13.60
2023-02-22T14:28:58.320Z,13.03
2023-02-22T14:31:36.833Z,12.73
2023-02-22T14:34:08.788Z,12.27
2023-02-22T14:36:43.753Z,13.43
2023-02-22T14:39:21.858Z,13.30
2023-02-22T14:41:56.967Z,13.73
2023-02-22T14:44:34.652Z,14.10
2023-02-22T14:47:08.592Z,13.00
2023-02-22T14:49:42.685Z,14.00
2023-02-22T14:52:22.786Z,13.67
2023-02-22T14:54:59.850Z,14.37
2023-02-22T14:57:39.008Z,14.37
2023-02-22T15:00:20.227Z,13.10
2023-02-22T15:02:57.329Z,14.73
2023-02-22T15:05:30.384Z,14.83
2023-02-22T15:08:01.491Z,13.57
2023-02-22T15:10:32.173Z,14.73
2023-02-22T15:13:12.707Z,13.70
2023-02-22T15:15:48.232Z,14.40
2023-02-22T15:18:29.599Z,14.73
2023-02-22T15:21:00.503Z,14.63
2023-02-22T15:23:33.504Z,14.63
2023-02-22T15:26:03.142Z,14.60
2023-02-22T15:28:32.432Z,14.67
2023-02-22T15:31:26.011Z,15.57
2023-02-22T15:33:56.458Z,16.77
2023-02-22T15:36:28.844Z,17.90
2023-02-22T15:38:57.401Z,16.70
2023-02-22T15:41:29.518Z,16.20
2023-02-22T15:44:14.247Z,16.37
2023-02-22T15:46:52.382Z,16.73
2023-02-22T15:49:25.950Z,17.60
2023-02-22T15:52:07.422Z,18.27
2023-02-22T15:54:45.834Z,17.27
2023-02-22T15:57:20.929Z,18.33
2023-02-22T15:59:53.862Z,18.03
2023-02-22T16:02:38.767Z,18.70
2023-02-22T16:05:12.992Z,19.97
2023-02-22T16:07:45.529Z,19.20
2023-02-22T16:10:25.125Z,19.80
2023-02-22T16:13:30.993Z,21.57
2023-02-22T16:16:03.020Z,20.70
2023-02-22T16:18:35.071Z,21.03
2023-02-22T16:21:07.806Z,20.90
2023-02-22T16:23:46.126Z,21.37
2023-02-22T16:26:22.179Z,21.27
2023-02-22T16:28:53.176Z,22.30
2023-02-22T16:31:22.926Z,22.77
2023-02-22T16:33:52.210Z,21.93
2023-02-22T16:36:25.696Z,21.63
2023-02-22T16:38:54.168Z,21.70
2023-02-22T16:41:22.599Z,23.53
2023-02-22T16:43:51.880Z,23.07
2023-02-22T16:46:21.030Z,22.07
2023-02-22T16:48:49.567Z,23.57
2023-02-22T16:51:24.281Z,23.80
2023-02-22T16:53:55.928Z,22.53
2023-02-22T16:56:30.797Z,21.50
2023-02-22T16:59:04.228Z,22.07
2023-02-22T17:01:35.329Z,22.30
2023-02-22T17:04:15.731Z,21.50
2023-02-22T17:06:45.866Z,21.57
2023-02-22T17:09:15.367Z,22.10
2023-02-22T17:11:44.789Z,22.43
2023-02-22T17:14:19.068Z,21.53
2023-02-22T17:16:47.813Z,20.90
2023-02-22T17:19:18.411Z,19.77
2023-02-22T17:21:51.509Z,22.07
2023-02-22T17:24:23.003Z,21.40
2023-02-22T17:26:52.134Z,21.50
2023-02-22T17:29:20.760Z,22.60
2023-02-22T17:31:49.499Z,23.00
2023-02-22T17:34:18.056Z,22.43
2023-02-22T17:36:46.738Z,22.53
2023-02-22T17:39:16.757Z,23.63
2023-02-22T17:41:45.345Z,23.70
2023-02-22T17:44:13.801Z,23.53
2023-02-22T17:46:42.282Z,24.37
2023-02-22T17:49:10.835Z,25.27
2023-02-22T17:51:41.169Z,24.97
2023-02-22T17:54:10.511Z,25.60
2023-02-22T17:56:42.580Z,26.57
2023-02-22T17:59:10.997Z,25.53
2023-02-22T18:01:39.495Z,25.17
2023-02-22T18:04:07.978Z,28.97
2023-02-22T18:06:38.164Z,28.33
2023-02-22T18:09:10.753Z,28.57
2023-02-22T18:11:41.244Z,27.30
2023-02-22T18:14:10.968Z,31.03
2023-02-22T18:16:40.777Z,29.17
2023-02-22T18:19:09.510Z,29.00
2023-02-22T18:21:38.731Z,30.27
2023-02-22T18:24:08.088Z,28.83
2023-02-22T18:26:40.126Z,30.40
2023-02-22T18:29:12.402Z,30.43
2023-02-22T18:31:41.022Z,29.90
2023-02-22T18:34:12.983Z,30.13
2023-02-22T18:36:41.368Z,30.90
2023-02-22T18:39:13.122Z,29.97
2023-02-22T18:41:45.025Z,30.87
2023-02-22T18:44:13.449Z,31.70
2023-02-22T18:46:43.630Z,31.57
2023-02-22T18:49:14.020Z,31.83
2023-02-22T18:51:43.715Z,32.27
2023-02-22T18:54:13.828Z,33.43
2023-02-22T18:56:43.649Z,32.93
2023-02-22T18:59:13.333Z,34.33
2023-02-22T19:01:48.717Z,33.80
2023-02-22T19:04:19.863Z,33.30
2023-02-22T19:06:49.867Z,33.13
2023-02-22T19:09:18.872Z,32.80
2023-02-22T19:11:50.981Z,33.57
2023-02-22T19:14:19.701Z,32.33
2023-02-22T19:16:50.855Z,32.90
2023-02-22T19:19:21.017Z,33.43
2023-02-22T19:21:49.970Z,32.90
2023-02-22T19:24:20.607Z,33.17
2023-02-22T19:26:51.846Z,33.97
2023-02-22T19:29:23.891Z,33.10
2023-02-22T19:31:53.844Z,34.27
2023-02-22T19:34:24.682Z,33.43
2023-02-22T19:36:53.451Z,32.83
2023-02-22T19:41:53.394Z,33.90
2023-02-22T19:44:22.090Z,33.67
2023-02-22T19:46:50.721Z,35.17
2023-02-22T19:49:19.206Z,34.43
2023-02-22T19:51:47.803Z,35.20
2023-02-22T19:54:21.558Z,34.87
2023-02-22T19:56:51.994Z,35.10
2023-02-22T19:59:23.606Z,35.33
2023-02-22T20:01:54.807Z,34.13
2023-02-22T20:04:24.450Z,33.73
2023-02-22T20:06:55.309Z,35.70
2023-02-22T20:09:30.051Z,35.03
2023-02-22T20:11:58.896Z,35.90
2023-02-22T20:14:30.568Z,36.60
2023-02-22T20:16:59.614Z,36.30
2023-02-22T20:19:29.920Z,37.43
2023-02-22T20:22:00.435Z,36.07
2023-02-22T20:24:28.925Z,36.87
2023-02-22T20:26:58.432Z,36.67
2023-02-22T20:29:30.728Z,37.03
2023-02-22T20:32:00.720Z,38.03
2023-02-22T20:34:32.453Z,37.80
2023-02-22T20:37:02.087Z,39.07
2023-02-22T20:39:30.808Z,37.43
2023-02-22T20:42:02.752Z,38.17
2023-02-22T20:44:32.668Z,37.40
2023-02-22T20:47:01.328Z,37.70
2023-02-22T20:49:29.946Z,39.40
2023-02-22T20:51:58.598Z,38.17
2023-02-22T20:54:30.083Z,38.57
2023-02-22T20:56:59.048Z,38.80
2023-02-22T20:59:29.100Z,37.50
2023-02-22T21:01:59.158Z,41.00
2023-02-22T21:04:30.646Z,39.57
2023-02-22T21:06:59.272Z,39.47
2023-02-22T21:09:27.798Z,39.33
2023-02-22T21:11:56.600Z,38.63
2023-02-22T21:14:25.594Z,38.03
2023-02-22T21:16:54.123Z,39.87
2023-02-22T21:19:26.526Z,40.73
2023-02-22T21:21:56.487Z,39.77
2023-02-22T21:24:26.288Z,39.07
2023-02-22T21:26:56.070Z,43.23
2023-02-22T21:29:25.313Z,41.97
2023-02-22T21:31:54.411Z,40.87
2023-02-22T21:34:25.963Z,44.83
2023-02-22T21:36:54.818Z,46.23
2023-02-22T21:39:28.406Z,46.20
2023-02-22T21:42:00.339Z,49.70
2023-02-22T21:44:29.744Z,49.37
2023-02-22T21:46:58.495Z,51.30
2023-02-22T21:49:29.011Z,49.97
2023-02-22T21:51:57.782Z,50.07
2023-02-22T21:54:28.149Z,53.23
2023-02-22T21:56:56.827Z,56.70
2023-02-22T21:59:25.375Z,54.27
2023-02-22T22:01:56.570Z,57.23
2023-02-22T22:04:28.108Z,60.77
2023-02-22T22:07:00.854Z,60.13
2023-02-22T22:09:33.389Z,65.10
2023-02-22T22:12:05.206Z,63.70
2023-02-22T22:14:35.151Z,66.30
2023-02-22T22:17:09.418Z,63.57
2023-02-22T22:19:40.560Z,67.03
2023-02-22T22:22:11.089Z,64.60
2023-02-22T22:24:41.820Z,63.53
2023-02-22T22:27:13.132Z,65.53
2023-02-22T22:29:43.550Z,60.77
2023-02-22T22:32:12.425Z,62.67
2023-02-22T22:34:42.643Z,61.47
2023-02-22T22:37:13.350Z,62.93
2023-02-22T22:39:42.547Z,62.53
2023-02-22T22:42:11.082Z,62.80
2023-02-22T22:44:42.220Z,65.50
2023-02-22T22:47:12.737Z,58.10
2023-02-22T22:49:42.723Z,66.70
2023-02-22T22:52:14.685Z,61.97
2023-02-22T22:54:45.830Z,67.13
2023-02-22T22:57:14.762Z,66.47
2023-02-22T22:59:43.307Z,67.83
2023-02-22T23:02:11.964Z,62.07
2023-02-22T23:04:40.432Z,57.90
2023-02-22T23:07:08.807Z,62.20
2023-02-22T23:09:39.606Z,62.27
2023-02-22T23:12:09.856Z,57.97
2023-02-22T23:14:40.080Z,58.23
2023-02-22T23:17:14.977Z,57.27
2023-02-22T23:19:44.939Z,53.77
2023-02-22T23:22:14.498Z,49.60
2023-02-22T23:24:45.557Z,55.50
2023-02-22T23:27:13.983Z,53.20
2023-02-22T23:29:46.865Z,55.10
2023-02-22T23:32:15.794Z,57.97
2023-02-22T23:34:44.430Z,58.77
2023-02-22T23:37:14.252Z,56.30
2023-02-22T23:39:44.536Z,50.37
2023-02-22T23:42:16.821Z,61.90
2023-02-22T23:44:46.205Z,58.53
2023-02-22T23:47:16.235Z,57.47
2023-02-22T23:49:49.453Z,62.30
2023-02-22T23:52:24.090Z,64.30
2023-02-22T23:54:54.607Z,57.33
2023-02-22T23:57:24.471Z,62.73
2023-02-22T23:59:53.053Z,62.67
